createdAt,value
2022-10-17T00:01:01.551Z,16.20
2022-10-17T00:03:30.577Z,16.10
2022-10-17T00:05:58.371Z,14.60
2022-10-17T00:08:25.831Z,18.30
2022-10-17T00:11:14.779Z,17.80
2022-10-17T00:13:46.653Z,16.20
2022-10-17T00:16:14.451Z,16.20
2022-10-17T00:18:41.439Z,16.50
2022-10-17T00:21:17.145Z,16.10
2022-10-17T00:23:44.774Z,16.80
2022-10-17T00:26:11.998Z,16.30
2022-10-17T00:28:39.736Z,18.20
2022-10-17T00:31:07.832Z,16.20
2022-10-17T00:33:35.867Z,16.30
2022-10-17T00:36:20.998Z,16.80
2022-10-17T00:38:55.091Z,17.20
2022-10-17T00:41:30.611Z,16.80
2022-10-17T00:44:03.217Z,16.30
2022-10-17T00:46:36.952Z,17.40
2022-10-17T00:49:09.975Z,16.30
2022-10-17T00:51:52.843Z,17.70
2022-10-17T00:54:25.186Z,18.60
2022-10-17T00:56:53.413Z,16.30
2022-10-17T00:59:23.053Z,16.30
2022-10-17T01:02:02.559Z,17.20
2022-10-17T01:04:30.816Z,16.30
2022-10-17T01:06:57.713Z,14.90
2022-10-17T01:09:27.262Z,16.30
2022-10-17T01:12:23.996Z,18.70
2022-10-17T01:15:24.750Z,17.60
2022-10-17T01:18:37.667Z,18.70
2022-10-17T01:21:10.319Z,16.30
2022-10-17T01:24:02.208Z,17.70
2022-10-17T01:27:00.927Z,16.30
2022-10-17T01:29:51.974Z,16.30
2022-10-17T01:32:37.460Z,16.30
2022-10-17T01:35:17.690Z,16.40
2022-10-17T01:38:04.798Z,16.40
2022-10-17T01:40:46.284Z,16.40
2022-10-17T01:43:25.905Z,17.20
2022-10-17T01:46:03.009Z,17.50
2022-10-17T01:48:44.390Z,17.50
2022-10-17T01:51:43.421Z,16.50
2022-10-17T01:54:45.505Z,16.50
2022-10-17T01:57:41.415Z,16.50
2022-10-17T02:00:19.187Z,16.50
2022-10-17T02:03:02.470Z,16.50
2022-10-17T02:05:38.031Z,16.50
2022-10-17T02:08:06.853Z,16.50
2022-10-17T02:10:48.200Z,16.50
2022-10-17T02:13:35.485Z,16.40
2022-10-17T02:16:34.264Z,16.50
2022-10-17T02:19:26.725Z,16.50
2022-10-17T02:22:33.283Z,16.40
2022-10-17T02:25:18.183Z,16.40
2022-10-17T02:28:01.817Z,18.70
2022-10-17T02:31:07.536Z,16.40
2022-10-17T02:33:46.102Z,16.30
2022-10-17T02:36:22.014Z,16.40
2022-10-17T02:38:53.237Z,18.60
2022-10-17T02:41:24.403Z,16.40
2022-10-17T02:43:56.637Z,16.40
2022-10-17T02:46:28.797Z,16.70
2022-10-17T02:49:12.139Z,16.50
2022-10-17T02:52:14.610Z,16.40
2022-10-17T02:55:13.884Z,16.40
2022-10-17T02:57:56.811Z,16.40
2022-10-17T03:00:26.597Z,16.40
2022-10-17T03:02:55.315Z,16.40
2022-10-17T03:05:29.225Z,18.80
2022-10-17T03:07:56.937Z,16.70
2022-10-17T03:10:25.105Z,16.30
2022-10-17T03:12:52.649Z,16.30
2022-10-17T03:15:20.082Z,17.80
2022-10-17T03:17:47.279Z,16.30
2022-10-17T03:20:14.588Z,16.30
2022-10-17T03:22:42.101Z,16.20
2022-10-17T03:25:10.522Z,16.20
2022-10-17T03:27:37.927Z,16.30
2022-10-17T03:30:05.985Z,16.30
2022-10-17T03:32:34.669Z,16.30
2022-10-17T03:35:02.487Z,16.30
2022-10-17T03:37:30.093Z,16.50
2022-10-17T03:39:57.373Z,18.20
2022-10-17T03:42:30.876Z,17.70
2022-10-17T03:44:59.167Z,18.20
2022-10-17T03:47:26.302Z,16.40
2022-10-17T03:49:53.807Z,18.50
2022-10-17T03:52:21.873Z,16.40
2022-10-17T03:54:51.180Z,18.20
2022-10-17T03:57:19.799Z,16.50
2022-10-17T03:59:47.396Z,16.60
2022-10-17T04:02:17.956Z,18.90
2022-10-17T04:04:44.922Z,16.90
2022-10-17T04:07:11.937Z,18.90
2022-10-17T04:09:42.959Z,14.60
2022-10-17T04:12:20.850Z,18.90
2022-10-17T04:14:49.344Z,18.30
2022-10-17T04:17:19.422Z,15.50
2022-10-17T04:19:46.335Z,18.50
2022-10-17T04:22:16.619Z,16.90
2022-10-17T04:24:44.765Z,17.90
2022-10-17T04:27:34.752Z,19.30
2022-10-17T04:30:01.843Z,17.00
2022-10-17T04:32:33.200Z,19.30
2022-10-17T04:35:09.490Z,17.50
2022-10-17T04:37:37.682Z,17.40
2022-10-17T04:40:13.042Z,17.10
2022-10-17T04:42:42.239Z,18.60
2022-10-17T04:45:11.814Z,17.40
2022-10-17T04:47:40.121Z,18.10
2022-10-17T04:50:07.789Z,17.10
2022-10-17T04:52:37.515Z,17.00
2022-10-17T04:55:07.963Z,17.10
2022-10-17T04:57:36.132Z,17.10
2022-10-17T05:00:18.035Z,18.00
2022-10-17T05:02:53.545Z,17.10
2022-10-17T05:05:21.011Z,17.10
2022-10-17T05:07:51.172Z,17.10
2022-10-17T05:10:20.408Z,17.10
2022-10-17T05:12:50.860Z,17.20
2022-10-17T05:15:19.812Z,17.20
2022-10-17T05:17:49.175Z,18.60
2022-10-17T05:20:17.017Z,16.30
2022-10-17T05:22:44.365Z,17.20
2022-10-17T05:25:17.114Z,17.90
2022-10-17T05:27:44.675Z,16.30
2022-10-17T05:30:12.195Z,18.20
2022-10-17T05:32:40.695Z,17.40
2022-10-17T05:35:10.097Z,17.40
2022-10-17T05:37:38.583Z,19.00
2022-10-17T05:40:08.601Z,17.50
2022-10-17T05:42:35.731Z,18.20
2022-10-17T05:45:04.987Z,18.60
2022-10-17T05:47:32.771Z,17.60
2022-10-17T05:50:00.012Z,16.80
2022-10-17T05:52:34.120Z,19.80
2022-10-17T05:55:10.215Z,17.70
2022-10-17T05:57:37.447Z,17.60
2022-10-17T06:00:09.412Z,17.70
2022-10-17T06:02:46.097Z,17.70
2022-10-17T06:05:16.179Z,17.70
2022-10-17T06:07:43.701Z,19.40
2022-10-17T06:10:16.388Z,17.70
2022-10-17T06:12:44.204Z,19.00
2022-10-17T06:15:12.762Z,18.70
2022-10-17T06:17:42.744Z,19.10
2022-10-17T06:20:10.491Z,19.90
2022-10-17T06:22:37.769Z,17.80
2022-10-17T06:25:10.158Z,20.00
2022-10-17T06:27:37.142Z,17.90
2022-10-17T06:30:05.280Z,20.30
2022-10-17T06:32:32.561Z,18.00
2022-10-17T06:35:00.389Z,18.10
2022-10-17T06:37:36.304Z,18.10
2022-10-17T06:40:09.031Z,18.10
2022-10-17T06:42:37.450Z,18.20
2022-10-17T06:45:22.888Z,18.20
2022-10-17T06:47:57.257Z,18.30
2022-10-17T06:50:40.723Z,19.20
2022-10-17T06:53:13.951Z,18.40
2022-10-17T06:55:54.088Z,18.40
2022-10-17T06:58:32.683Z,18.50
2022-10-17T07:01:11.917Z,18.60
2022-10-17T07:03:41.215Z,19.80
2022-10-17T07:06:08.544Z,20.10
2022-10-17T07:08:35.713Z,18.70
2022-10-17T07:11:17.235Z,18.80
2022-10-17T07:13:44.692Z,18.90
2022-10-17T07:16:13.312Z,18.90
2022-10-17T07:18:42.514Z,20.50
2022-10-17T07:21:10.061Z,19.00
2022-10-17T07:23:39.883Z,19.10
2022-10-17T07:26:12.137Z,19.10
2022-10-17T07:28:43.481Z,19.50
2022-10-17T07:31:24.345Z,19.20
2022-10-17T07:33:51.700Z,19.30
2022-10-17T07:36:19.265Z,19.30
2022-10-17T07:38:47.574Z,20.80
2022-10-17T07:41:19.185Z,19.30
2022-10-17T07:43:49.431Z,19.40
2022-10-17T07:46:20.172Z,20.70
2022-10-17T07:48:47.315Z,19.40
2022-10-17T07:51:14.472Z,19.30
2022-10-17T07:53:45.119Z,20.60
2022-10-17T07:56:15.075Z,21.20
2022-10-17T07:58:43.116Z,19.50
2022-10-17T08:01:15.519Z,19.20
2022-10-17T08:03:45.296Z,20.80
2022-10-17T08:06:14.144Z,20.60
2022-10-17T08:08:41.824Z,19.70
2022-10-17T08:11:12.820Z,19.80
2022-10-17T08:13:41.677Z,19.90
2022-10-17T08:16:12.855Z,19.90
2022-10-17T08:18:43.028Z,21.00
2022-10-17T08:21:12.966Z,20.00
2022-10-17T08:23:40.608Z,20.10
2022-10-17T08:26:10.697Z,20.00
2022-10-17T08:28:40.292Z,20.00
2022-10-17T08:31:11.409Z,20.00
2022-10-17T08:33:38.843Z,20.00
2022-10-17T08:36:07.344Z,20.20
2022-10-17T08:38:37.622Z,20.10
2022-10-17T08:41:15.213Z,21.80
2022-10-17T08:44:02.293Z,20.00
2022-10-17T08:46:40.893Z,20.10
2022-10-17T08:49:23.956Z,21.80
2022-10-17T08:52:02.843Z,21.80
2022-10-17T08:54:46.029Z,19.80
2022-10-17T08:57:17.902Z,19.80
2022-10-17T08:59:52.000Z,19.80
2022-10-17T09:03:00.594Z,20.20
2022-10-17T09:05:37.894Z,19.70
2022-10-17T09:08:31.945Z,19.70
2022-10-17T09:11:35.883Z,19.70
2022-10-17T09:14:34.161Z,19.70
2022-10-17T09:17:45.063Z,19.60
2022-10-17T09:20:28.280Z,19.60
2022-10-17T09:23:19.806Z,20.20
2022-10-17T09:25:53.843Z,19.50
2022-10-17T09:28:30.812Z,19.70
2022-10-17T09:31:35.614Z,19.40
2022-10-17T09:34:03.656Z,19.40
2022-10-17T09:36:37.044Z,19.40
2022-10-17T09:39:12.937Z,20.50
2022-10-17T09:41:50.346Z,20.00
2022-10-17T09:44:32.338Z,19.40
2022-10-17T09:47:34.740Z,19.40
2022-10-17T09:50:02.236Z,19.40
2022-10-17T09:52:47.643Z,19.50
2022-10-17T09:55:45.534Z,20.70
2022-10-17T09:58:12.451Z,19.50
2022-10-17T10:00:42.795Z,20.90
2022-10-17T10:03:14.494Z,19.60
2022-10-17T10:05:44.005Z,19.60
2022-10-17T10:08:19.895Z,19.80
2022-10-17T10:10:46.901Z,19.70
2022-10-17T10:13:13.651Z,19.60
2022-10-17T10:15:48.136Z,19.70
2022-10-17T10:18:26.976Z,19.70
2022-10-17T10:21:24.172Z,19.70
2022-10-17T10:24:14.240Z,19.70
2022-10-17T10:26:48.844Z,19.80
2022-10-17T10:29:34.053Z,19.80
2022-10-17T10:32:34.350Z,19.80
2022-10-17T10:35:24.064Z,19.80
2022-10-17T10:37:59.675Z,20.60
2022-10-17T10:40:37.841Z,19.90
2022-10-17T10:43:06.463Z,19.90
2022-10-17T10:45:47.478Z,20.90
2022-10-17T10:48:25.360Z,21.50
2022-10-17T10:50:59.291Z,20.10
2022-10-17T10:53:47.354Z,21.60
2022-10-17T10:56:23.994Z,20.10
2022-10-17T10:59:20.463Z,20.20
2022-10-17T11:02:16.167Z,20.30
2022-10-17T11:04:55.918Z,20.30
2022-10-17T11:07:53.452Z,20.30
2022-10-17T11:10:36.479Z,20.40
2022-10-17T11:13:28.998Z,20.40
2022-10-17T11:16:37.096Z,20.50
2022-10-17T11:19:33.056Z,20.50
2022-10-17T11:22:19.264Z,20.50
2022-10-17T11:24:57.134Z,20.50
2022-10-17T11:27:28.145Z,20.60
2022-10-17T11:29:58.166Z,20.50
2022-10-17T11:32:57.010Z,21.20
2022-10-17T11:35:46.122Z,20.50
2022-10-17T11:38:25.632Z,21.30
2022-10-17T11:40:57.907Z,20.50
2022-10-17T11:44:03.511Z,20.50
2022-10-17T11:46:36.005Z,20.50
2022-10-17T11:49:20.557Z,20.60
2022-10-17T11:52:26.997Z,20.60
2022-10-17T11:55:28.154Z,20.60
2022-10-17T11:59:08.133Z,20.60
2022-10-17T12:01:49.476Z,20.60
2022-10-17T12:04:54.728Z,20.60
2022-10-17T12:07:38.168Z,20.60
2022-10-17T12:10:43.014Z,20.60
2022-10-17T12:13:27.973Z,20.60
2022-10-17T12:15:56.334Z,20.60
2022-10-17T12:18:29.568Z,21.60
2022-10-17T12:21:00.738Z,21.60
2022-10-17T12:23:32.740Z,20.70
2022-10-17T12:26:07.657Z,21.90
2022-10-17T12:28:38.044Z,20.60
2022-10-17T12:31:17.293Z,20.60
2022-10-17T12:33:57.631Z,20.70
2022-10-17T12:36:30.770Z,20.60
2022-10-17T12:39:03.698Z,22.00
2022-10-17T12:41:39.686Z,21.10
2022-10-17T12:44:21.618Z,20.80
2022-10-17T12:47:08.510Z,20.80
2022-10-17T12:49:53.122Z,20.80
2022-10-17T12:52:27.233Z,20.90
2022-10-17T12:55:14.246Z,20.90
2022-10-17T12:57:51.659Z,20.90
2022-10-17T13:00:40.849Z,21.00
2022-10-17T13:03:26.726Z,21.00
2022-10-17T13:05:59.142Z,21.90
2022-10-17T13:08:38.832Z,21.10
2022-10-17T13:11:10.488Z,21.10
2022-10-17T13:13:50.369Z,21.10
2022-10-17T13:16:51.190Z,21.10
2022-10-17T13:19:24.687Z,21.10
2022-10-17T13:22:06.732Z,21.10
2022-10-17T13:24:40.749Z,21.00
2022-10-17T13:27:23.887Z,21.00
2022-10-17T13:29:50.791Z,20.90
2022-10-17T13:32:18.000Z,20.90
2022-10-17T13:34:44.910Z,20.90
2022-10-17T13:37:15.644Z,20.80
2022-10-17T13:39:56.030Z,20.80
2022-10-17T13:42:31.901Z,22.00
2022-10-17T13:45:00.025Z,21.30
2022-10-17T13:47:32.311Z,22.60
2022-10-17T13:50:00.856Z,20.70
2022-10-17T13:52:30.668Z,20.60
2022-10-17T13:55:17.461Z,20.60
2022-10-17T13:57:44.782Z,20.50
2022-10-17T14:00:21.636Z,20.90
2022-10-17T14:02:48.761Z,20.50
2022-10-17T14:05:23.195Z,18.90
2022-10-17T14:08:16.732Z,20.50
2022-10-17T14:10:45.229Z,22.50
2022-10-17T14:13:26.019Z,19.30
2022-10-17T14:16:01.548Z,20.50
2022-10-17T14:18:37.596Z,21.30
2022-10-17T14:24:26.978Z,20.60
2022-10-17T14:27:00.142Z,20.60
2022-10-17T14:29:32.635Z,20.60
2022-10-17T14:32:06.090Z,20.60
2022-10-17T14:34:37.565Z,20.70
2022-10-17T14:37:30.051Z,21.30
2022-10-17T14:40:01.627Z,20.80
2022-10-17T14:42:29.102Z,22.70
2022-10-17T14:45:07.991Z,20.90
2022-10-17T14:47:43.632Z,20.80
2022-10-17T14:50:10.890Z,20.80
2022-10-17T14:52:39.007Z,20.80
2022-10-17T14:55:27.045Z,21.00
2022-10-17T14:57:54.139Z,20.90
2022-10-17T15:00:23.170Z,22.70
2022-10-17T15:02:52.228Z,21.10
2022-10-17T15:05:20.984Z,20.90
2022-10-17T15:07:47.845Z,21.10
2022-10-17T15:10:34.204Z,20.90
2022-10-17T15:13:26.687Z,20.90
2022-10-17T15:15:51.863Z,20.90
2022-10-17T15:18:18.919Z,21.80
2022-10-17T15:20:45.788Z,20.90
2022-10-17T15:23:12.702Z,20.90
2022-10-17T15:25:40.495Z,22.30
2022-10-17T15:28:07.981Z,21.00
2022-10-17T15:30:36.754Z,21.00
2022-10-17T15:33:06.741Z,22.70
2022-10-17T15:35:33.706Z,22.50
2022-10-17T15:38:00.528Z,21.00
2022-10-17T15:40:30.120Z,22.20
2022-10-17T15:42:57.555Z,21.00
2022-10-17T15:45:24.571Z,20.90
2022-10-17T15:48:00.584Z,21.60
2022-10-17T15:50:30.800Z,20.80
2022-10-17T15:52:57.736Z,20.90
2022-10-17T15:55:28.278Z,20.20
2022-10-17T15:57:55.169Z,20.70
2022-10-17T16:00:24.395Z,22.20
2022-10-17T16:02:51.625Z,22.70
2022-10-17T16:05:29.221Z,21.00
2022-10-17T16:07:57.874Z,20.50
2022-10-17T16:10:26.064Z,22.00
2022-10-17T16:12:53.053Z,20.40
2022-10-17T16:15:25.366Z,21.80
2022-10-17T16:17:55.280Z,22.50
2022-10-17T16:20:24.315Z,21.50
2022-10-17T16:22:53.218Z,22.40
2022-10-17T16:25:25.276Z,20.00
2022-10-17T16:27:55.961Z,20.40
2022-10-17T16:30:25.314Z,19.90
2022-10-17T16:32:54.969Z,21.40
2022-10-17T16:35:33.358Z,19.80
2022-10-17T16:38:05.008Z,19.80
2022-10-17T16:40:33.154Z,19.70
2022-10-17T16:43:00.176Z,19.70
2022-10-17T16:45:27.148Z,19.60
2022-10-17T16:47:55.056Z,19.50
2022-10-17T16:50:22.122Z,19.50
2022-10-17T16:52:48.968Z,19.60
2022-10-17T16:55:18.951Z,21.10
2022-10-17T16:57:48.612Z,19.30
2022-10-17T17:00:16.615Z,19.30
2022-10-17T17:02:44.531Z,19.30
2022-10-17T17:05:11.992Z,20.30
2022-10-17T17:07:39.232Z,19.30
2022-10-17T17:10:07.875Z,19.20
2022-10-17T17:12:36.416Z,19.20
2022-10-17T17:15:03.689Z,19.10
2022-10-17T17:17:49.673Z,19.10
2022-10-17T17:20:18.288Z,19.00
2022-10-17T17:22:45.100Z,21.10
2022-10-17T17:25:11.943Z,19.00
2022-10-17T17:27:38.854Z,18.90
2022-10-17T17:30:07.649Z,19.50
2022-10-17T17:32:34.587Z,18.90
2022-10-17T17:35:01.638Z,18.90
2022-10-17T17:37:28.867Z,18.80
2022-10-17T17:39:56.035Z,18.80
2022-10-17T17:42:23.028Z,19.30
2022-10-17T17:44:50.539Z,19.40
2022-10-17T17:47:17.353Z,18.80
2022-10-17T17:49:45.046Z,18.70
2022-10-17T17:52:11.852Z,20.40
2022-10-17T17:54:40.906Z,20.10
2022-10-17T17:57:08.442Z,18.60
2022-10-17T17:59:35.555Z,18.60
2022-10-17T18:02:02.837Z,18.60
2022-10-17T18:04:29.784Z,20.80
2022-10-17T18:06:56.746Z,19.70
2022-10-17T18:09:23.893Z,18.60
2022-10-17T18:11:52.394Z,18.50
2022-10-17T18:14:23.680Z,20.30
2022-10-17T18:16:50.687Z,19.50
2022-10-17T18:19:17.658Z,18.60
2022-10-17T18:21:44.639Z,18.30
2022-10-17T18:24:11.495Z,19.50
2022-10-17T18:26:38.360Z,18.50
2022-10-17T18:29:05.347Z,19.40
2022-10-17T18:31:35.614Z,19.50
2022-10-17T18:34:05.154Z,19.60
2022-10-17T18:36:34.522Z,18.30
2022-10-17T18:39:02.277Z,18.80
2022-10-17T18:41:29.686Z,18.30
2022-10-17T18:43:57.557Z,18.30
2022-10-17T18:46:41.185Z,18.30
2022-10-17T18:49:15.334Z,18.30
2022-10-17T18:51:42.979Z,18.30
2022-10-17T18:54:20.510Z,20.00
2022-10-17T18:56:53.601Z,18.40
2022-10-17T18:59:22.030Z,18.40
2022-10-17T19:01:49.231Z,18.40
2022-10-17T19:04:16.452Z,20.40
2022-10-17T19:06:43.822Z,20.10
2022-10-17T19:09:13.398Z,20.20
2022-10-17T19:11:41.972Z,18.40
2022-10-17T19:14:14.876Z,19.50
2022-10-17T19:16:51.599Z,19.10
2022-10-17T19:19:25.593Z,18.40
2022-10-17T19:21:54.290Z,18.40
2022-10-17T19:24:26.023Z,18.50
2022-10-17T19:26:56.613Z,18.40
2022-10-17T19:29:28.641Z,20.70
2022-10-17T19:34:27.854Z,18.40
2022-10-17T19:36:55.782Z,18.40
2022-10-17T19:39:25.083Z,18.40
2022-10-17T19:41:52.296Z,18.40
2022-10-17T19:44:19.736Z,19.10
2022-10-17T19:46:49.028Z,17.40
2022-10-17T19:49:16.566Z,18.40
2022-10-17T19:51:44.071Z,20.50
2022-10-17T19:54:11.691Z,18.60
2022-10-17T19:56:38.910Z,18.30
2022-10-17T19:59:08.381Z,18.30
2022-10-17T20:01:38.957Z,18.30
2022-10-17T20:04:10.995Z,18.30
2022-10-17T20:06:39.786Z,19.50
2022-10-17T20:09:13.928Z,20.20
2022-10-17T20:11:44.052Z,18.20
2022-10-17T20:14:11.027Z,18.20
2022-10-17T20:16:37.871Z,18.50
2022-10-17T20:19:09.999Z,18.20
2022-10-17T20:21:39.718Z,18.20
2022-10-17T20:24:11.348Z,18.10
2022-10-17T20:26:39.373Z,18.00
2022-10-17T20:29:15.449Z,18.10
2022-10-17T20:31:45.716Z,18.10
2022-10-17T20:34:15.864Z,18.10
2022-10-17T20:36:43.142Z,18.10
2022-10-17T20:39:13.302Z,18.00
2022-10-17T20:41:41.312Z,18.00
2022-10-17T20:44:09.012Z,18.70
2022-10-17T20:46:37.815Z,18.60
2022-10-17T20:49:13.806Z,19.90
2022-10-17T20:51:41.324Z,17.90
2022-10-17T20:54:08.885Z,17.90
2022-10-17T20:56:36.086Z,19.10
2022-10-17T20:59:07.540Z,17.90
2022-10-17T21:01:36.083Z,17.90
2022-10-17T21:04:27.018Z,17.90
2022-10-17T21:06:52.136Z,17.90
2022-10-17T21:09:19.874Z,17.80
2022-10-17T21:11:48.110Z,19.60
2022-10-17T21:14:16.824Z,19.50
2022-10-17T21:16:44.186Z,17.80
2022-10-17T21:19:12.636Z,18.30
2022-10-17T21:21:43.849Z,18.80
2022-10-17T21:24:17.329Z,17.70
2022-10-17T21:26:47.218Z,17.70
2022-10-17T21:29:14.874Z,17.60
2022-10-17T21:31:44.261Z,17.60
2022-10-17T21:34:14.838Z,17.60
2022-10-17T21:36:43.087Z,17.50
2022-10-17T21:39:12.244Z,18.50
2022-10-17T21:41:40.862Z,17.70
2022-10-17T21:44:14.305Z,17.60
2022-10-17T21:46:42.123Z,18.70
2022-10-17T21:49:12.995Z,18.90
2022-10-17T21:51:40.905Z,17.50
2022-10-17T21:54:08.938Z,17.50
2022-10-17T21:56:36.422Z,18.10
2022-10-17T21:59:04.976Z,18.80
2022-10-17T22:01:38.520Z,17.50
2022-10-17T22:04:10.006Z,17.40
2022-10-17T22:06:40.872Z,18.30
2022-10-17T22:09:18.566Z,17.40
2022-10-17T22:11:49.441Z,19.40
2022-10-17T22:14:20.070Z,17.30
2022-10-17T22:16:48.971Z,17.40
2022-10-17T22:19:22.414Z,17.30
2022-10-17T22:21:49.898Z,18.30
2022-10-17T22:26:52.314Z,15.40
2022-10-17T22:29:19.731Z,18.80
2022-10-17T22:31:46.958Z,15.20
2022-10-17T22:34:16.583Z,19.10
2022-10-17T22:36:44.354Z,17.30
2022-10-17T22:39:11.585Z,17.30
2022-10-17T22:41:38.694Z,17.30
2022-10-17T22:44:06.314Z,18.20
2022-10-17T22:46:33.261Z,17.30
2022-10-17T22:49:00.511Z,17.30
2022-10-17T22:51:27.849Z,18.60
2022-10-17T22:53:55.045Z,19.30
2022-10-17T22:56:23.624Z,18.10
2022-10-17T22:58:51.416Z,17.30
2022-10-17T23:01:22.738Z,18.80
2022-10-17T23:03:51.860Z,19.20
2022-10-17T23:06:19.996Z,17.40
2022-10-17T23:08:48.047Z,17.30
2022-10-17T23:11:15.405Z,17.30
2022-10-17T23:13:42.400Z,18.10
2022-10-17T23:16:10.030Z,18.90
2022-10-17T23:18:38.180Z,17.30
2022-10-17T23:21:06.149Z,17.40
2022-10-17T23:23:33.192Z,17.30
2022-10-17T23:26:10.000Z,18.00
2022-10-17T23:28:37.813Z,17.40
2022-10-17T23:31:21.911Z,19.40
2022-10-17T23:33:50.025Z,17.40
2022-10-17T23:36:20.286Z,17.40
2022-10-17T23:38:48.898Z,18.60
2022-10-17T23:41:16.715Z,17.50
2022-10-17T23:43:46.815Z,19.60
2022-10-17T23:46:13.936Z,17.50
2022-10-17T23:48:42.055Z,17.50
2022-10-17T23:51:10.781Z,17.50
2022-10-17T23:53:39.423Z,18.80
2022-10-17T23:56:08.278Z,17.50
2022-10-17T23:58:35.689Z,17.50
